Time;durP1;ratioP1;P1;durP2;ratioP2;P2;SDS_P1;SDS_P2;PMS_P1;PMS_P2;Temp;Humidity;BMP_temperature;BMP_pressure;BME280_temperature;BME280_humidity;BME280_pressure;Samples;Min_cycle;Max_cycle;Signal;HPM_P1;HPM_P2
2023/07/08 00:00:47;;;;;;;;;4.00;4.00;;;;;22.51;50.73;101789.44;5027390;28;8839;-66
2023/07/08 00:03:16;;;;;;;;;3.00;3.00;;;;;22.50;50.92;101784.22;5031990;28;8820;-68
2023/07/08 00:05:43;;;;;;;;;3.00;3.00;;;;;22.47;50.84;101782.78;5026269;28;9568;-68
2023/07/08 00:08:14;;;;;;;;;3.25;3.25;;;;;22.41;50.90;101783.81;5037832;28;9550;-67
2023/07/08 00:10:41;;;;;;;;;6.00;4.00;;;;;22.34;50.90;101773.00;5041513;28;8833;-68
2023/07/08 00:13:08;;;;;;;;;5.50;5.00;;;;;22.24;51.32;101781.06;5029690;28;8833;-69
2023/07/08 00:15:36;;;;;;;;;4.00;4.00;;;;;22.21;51.35;101767.84;5031596;28;8832;-68
2023/07/08 00:18:12;;;;;;;;;4.00;4.00;;;;;22.14;51.75;101769.91;5032446;28;8828;-67
2023/07/08 00:20:41;;;;;;;;;5.00;4.00;;;;;22.17;52.04;101773.00;5013287;28;8867;-69
2023/07/08 00:23:11;;;;;;;;;4.75;4.75;;;;;22.14;52.00;101772.66;5028219;28;8847;-70
2023/07/08 00:25:38;;;;;;;;;6.00;5.00;;;;;22.10;52.41;101775.03;5029971;28;8828;-68
2023/07/08 00:28:21;;;;;;;;;6.00;6.00;;;;;22.03;52.26;101770.78;5047257;28;8832;-68
2023/07/08 00:30:48;;;;;;;;;5.00;5.00;;;;;21.97;52.55;101772.63;5037254;28;8858;-68
2023/07/08 00:33:16;;;;;;;;;5.25;5.25;;;;;21.88;52.47;101769.47;5011281;28;8845;-69
2023/07/08 00:35:45;;;;;;;;;4.00;3.75;;;;;21.85;52.78;101772.69;5015394;28;8829;-68
2023/07/08 00:38:26;;;;;;;;;4.50;4.00;;;;;21.86;52.99;101765.28;5026590;28;8823;-69
2023/07/08 00:41:02;;;;;;;;;4.25;4.25;;;;;21.84;52.68;101760.06;5051527;28;8848;-68
2023/07/08 00:43:36;;;;;;;;;5.25;5.00;;;;;21.73;52.88;101758.22;5050668;28;8834;-68
2023/07/08 00:46:27;;;;;;;;;7.00;7.00;;;;;21.69;53.33;101755.13;5035248;28;8829;-67
2023/07/08 00:49:06;;;;;;;;;5.50;5.50;;;;;21.59;53.12;101746.75;5031570;28;8882;-68
2023/07/08 00:51:37;;;;;;;;;8.25;6.50;;;;;21.55;53.33;101748.28;5025293;28;8839;-68
2023/07/08 00:54:15;;;;;;;;;4.00;3.75;;;;;21.58;53.36;101750.53;5045175;28;8951;-68
2023/07/08 00:57:03;;;;;;;;;4.00;4.00;;;;;21.62;53.52;101748.97;5030439;28;8851;-68
2023/07/08 00:59:36;;;;;;;;;6.00;5.00;;;;;21.68;53.29;101753.47;5030379;28;8836;-67
2023/07/08 01:02:08;;;;;;;;;5.75;5.00;;;;;21.61;52.98;101749.22;5029284;28;8840;-68
2023/07/08 01:04:49;;;;;;;;;7.25;6.00;;;;;21.55;53.37;101751.00;5030936;28;8816;-69
2023/07/08 01:07:21;;;;;;;;;3.00;3.00;;;;;21.53;53.10;101750.44;5028870;28;8825;-67
2023/07/08 01:09:53;;;;;;;;;6.75;6.75;;;;;21.47;53.17;101749.53;5028672;28;8987;-67
2023/07/08 01:12:25;;;;;;;;;7.00;4.75;;;;;21.45;53.45;101745.34;5030885;28;8896;-68
2023/07/08 01:14:54;;;;;;;;;8.50;7.75;;;;;21.44;53.26;101738.22;5029903;28;8840;-68
2023/07/08 01:17:22;;;;;;;;;5.75;5.75;;;;;21.44;53.26;101744.53;5028174;28;8875;-68
2023/07/08 01:19:50;;;;;;;;;4.50;4.50;;;;;21.45;53.06;101735.22;5026588;28;8854;-68
2023/07/08 01:22:17;;;;;;;;;7.75;6.50;;;;;21.39;53.19;101736.22;5029798;28;9557;-69
2023/07/08 01:24:46;;;;;;;;;7.50;7.00;;;;;21.38;53.07;101736.44;5029575;28;8922;-67
2023/07/08 01:27:16;;;;;;;;;6.00;6.00;;;;;21.34;53.09;101730.63;5046508;28;8833;-69
2023/07/08 01:29:44;;;;;;;;;6.00;6.00;;;;;21.25;53.25;101729.31;5028716;28;8914;-68
2023/07/08 01:32:17;;;;;;;;;6.25;6.25;;;;;21.29;53.51;101722.28;5039390;28;8830;-69
2023/07/08 01:34:59;;;;;;;;;7.00;7.00;;;;;21.27;53.46;101721.72;5049356;28;8919;-68
2023/07/08 01:37:35;;;;;;;;;6.75;6.75;;;;;21.27;53.92;101718.13;5024739;28;8815;-67
2023/07/08 01:40:21;;;;;;;;;6.75;6.25;;;;;21.23;53.95;101718.63;5010893;28;9587;-68
2023/07/08 01:42:47;;;;;;;;;6.75;6.75;;;;;21.24;53.80;101717.53;5024577;28;9130;-69
2023/07/08 01:45:16;;;;;;;;;7.25;7.25;;;;;21.23;53.72;101720.53;5029977;28;8879;-69
2023/07/08 01:47:51;;;;;;;;;6.50;6.50;;;;;21.27;54.37;101712.63;5029323;28;9565;-69
2023/07/08 01:50:20;;;;;;;;;7.00;5.50;;;;;21.30;54.12;101712.16;5045694;28;9010;-69
2023/07/08 01:52:49;;;;;;;;;7.75;7.50;;;;;21.24;54.18;101714.81;5029284;28;8832;-67
2023/07/08 01:55:21;;;;;;;;;7.75;6.25;;;;;21.19;54.33;101716.63;5025412;28;8835;-68
2023/07/08 01:57:47;;;;;;;;;7.50;7.50;;;;;21.17;54.48;101714.13;5026818;28;8840;-68
2023/07/08 02:00:14;;;;;;;;;4.25;4.00;;;;;21.16;54.70;101717.09;5025731;28;8916;-68
2023/07/08 02:02:42;;;;;;;;;8.25;6.75;;;;;21.15;54.71;101716.28;5025415;28;8810;-68
2023/07/08 02:05:08;;;;;;;;;6.25;5.00;;;;;21.14;54.83;101698.16;5043868;28;8926;-69
2023/07/08 02:07:35;;;;;;;;;4.00;4.00;;;;;21.15;54.86;101697.13;5027072;28;8875;-66
2023/07/08 02:10:03;;;;;;;;;8.50;7.00;;;;;21.15;54.97;101702.59;5043674;28;8860;-68
2023/07/08 02:12:30;;;;;;;;;6.50;4.50;;;;;21.16;55.09;101692.47;5028582;28;8812;-67
2023/07/08 02:14:57;;;;;;;;;7.00;7.00;;;;;21.15;54.81;101688.06;5022996;28;8837;-68
2023/07/08 02:17:23;;;;;;;;;5.50;5.25;;;;;21.16;55.01;101684.25;5010358;28;8966;-67
2023/07/08 02:19:50;;;;;;;;;7.00;7.00;;;;;21.08;54.65;101685.47;5010886;28;8855;-68
2023/07/08 02:22:17;;;;;;;;;5.75;5.00;;;;;21.04;55.07;101692.50;5056595;28;8919;-67
2023/07/08 02:24:43;;;;;;;;;5.75;5.75;;;;;21.02;55.09;101682.88;5048628;28;8845;-68
2023/07/08 02:27:11;;;;;;;;;8.00;8.00;;;;;20.99;55.17;101671.34;5036092;28;8832;-69
2023/07/08 02:29:38;;;;;;;;;7.00;7.00;;;;;21.05;55.20;101674.16;5029961;28;8837;-67
2023/07/08 02:32:05;;;;;;;;;5.25;5.25;;;;;21.07;55.11;101672.03;5036774;28;8867;-67
2023/07/08 02:34:32;;;;;;;;;5.50;5.25;;;;;20.98;54.82;101668.81;5054071;28;9514;-68
2023/07/08 02:36:59;;;;;;;;;9.00;5.67;;;;;20.92;54.88;101675.28;5043106;28;8837;-68
2023/07/08 02:39:26;;;;;;;;;7.75;7.75;;;;;20.88;54.94;101668.63;5030133;28;8921;-67
2023/07/08 02:41:52;;;;;;;;;8.00;8.00;;;;;20.84;55.05;101665.56;5032209;28;8848;-68
2023/07/08 02:44:19;;;;;;;;;7.00;6.25;;;;;20.82;55.54;101664.13;5034631;28;8854;-68
2023/07/08 02:46:45;;;;;;;;;5.75;5.75;;;;;20.79;55.60;101670.09;5052901;28;8849;-68
2023/07/08 02:49:12;;;;;;;;;5.50;5.00;;;;;20.74;55.40;101666.19;5026115;28;8901;-69
2023/07/08 02:51:38;;;;;;;;;10.50;10.50;;;;;20.65;55.48;101670.34;5013691;28;8886;-68
2023/07/08 02:54:05;;;;;;;;;8.25;8.00;;;;;20.60;55.71;101670.25;5015360;28;8849;-69
2023/07/08 02:56:31;;;;;;;;;4.00;4.00;;;;;20.61;55.98;101669.16;5032929;28;8834;-69
2023/07/08 02:58:58;;;;;;;;;6.25;6.25;;;;;20.63;55.67;101661.56;5066069;28;8842;-69
2023/07/08 03:01:26;;;;;;;;;8.75;8.00;;;;;20.57;55.45;101667.16;5015834;28;8823;-67
2023/07/08 03:03:59;;;;;;;;;6.25;6.25;;;;;20.58;55.86;101664.19;5031917;28;8828;-68
2023/07/08 03:06:26;;;;;;;;;5.50;4.50;;;;;20.61;55.93;101666.44;5046895;28;8844;-69
2023/07/08 03:08:52;;;;;;;;;6.75;5.25;;;;;20.64;55.86;101663.22;5032251;28;8856;-69
2023/07/08 03:11:19;;;;;;;;;7.00;7.00;;;;;20.63;55.57;101650.63;5033252;28;8867;-68
2023/07/08 03:13:47;;;;;;;;;5.50;5.00;;;;;20.55;55.75;101661.94;5032548;28;8840;-68
2023/07/08 03:16:14;;;;;;;;;7.75;7.75;;;;;20.54;55.80;101665.75;5028872;28;8840;-68
2023/07/08 03:18:45;;;;;;;;;7.00;6.00;;;;;20.49;55.55;101657.41;5023801;28;8937;-68
2023/07/08 03:21:16;;;;;;;;;6.75;6.75;;;;;20.53;55.84;101657.78;5047153;28;8827;-66
2023/07/08 03:23:43;;;;;;;;;4.75;4.75;;;;;20.56;55.96;101658.13;5015701;28;8883;-69
2023/07/08 03:26:16;;;;;;;;;4.50;4.00;;;;;20.62;55.46;101664.53;5047433;28;8832;-68
2023/07/08 03:28:45;;;;;;;;;6.25;6.25;;;;;20.56;55.22;101668.25;5027226;28;8859;-66
2023/07/08 03:31:12;;;;;;;;;6.00;4.25;;;;;20.54;55.56;101662.16;5031789;28;8848;-68
2023/07/08 03:33:39;;;;;;;;;5.50;5.50;;;;;20.57;55.72;101659.78;5027300;28;8861;-65
2023/07/08 03:36:22;;;;;;;;;6.75;6.75;;;;;20.60;55.96;101663.94;5013723;28;8942;-67
2023/07/08 03:38:55;;;;;;;;;5.00;5.00;;;;;20.65;55.73;101662.13;5021507;28;8835;-67
2023/07/08 03:41:22;;;;;;;;;7.00;7.00;;;;;20.62;55.59;101661.78;5013055;28;8839;-67
2023/07/08 03:43:50;;;;;;;;;6.00;6.00;;;;;20.61;55.51;101660.97;5019011;28;9696;-67
2023/07/08 03:46:20;;;;;;;;;8.00;7.00;;;;;20.62;55.57;101668.13;5031573;28;8946;-67
2023/07/08 03:48:47;;;;;;;;;6.25;6.25;;;;;20.55;55.28;101661.13;5032075;28;8861;-67
2023/07/08 03:51:22;;;;;;;;;5.25;5.25;;;;;20.39;56.00;101659.91;4997606;28;8874;-67
2023/07/08 03:53:49;;;;;;;;;8.00;7.00;;;;;20.39;56.20;101659.91;5020068;28;8947;-66
2023/07/08 03:56:16;;;;;;;;;4.75;4.75;;;;;20.39;56.23;101663.47;5037191;28;9596;-68
2023/07/08 03:58:42;;;;;;;;;5.50;5.00;;;;;20.44;56.23;101666.31;5030723;28;8824;-67
2023/07/08 04:01:20;;;;;;;;;5.50;4.50;;;;;20.40;55.98;101665.13;5049771;28;9692;-67
2023/07/08 04:03:48;;;;;;;;;7.00;7.00;;;;;20.35;56.09;101666.94;5054547;28;8821;-66
2023/07/08 04:06:15;;;;;;;;;11.25;7.50;;;;;20.36;56.34;101666.69;5031335;28;8863;-67
2023/07/08 04:08:41;;;;;;;;;4.75;3.75;;;;;20.35;56.37;101672.41;5034607;28;8905;-67
2023/07/08 04:11:11;;;;;;;;;7.00;6.00;;;;;20.39;56.39;101673.59;5025777;28;8844;-66
2023/07/08 04:13:38;;;;;;;;;7.50;7.50;;;;;20.39;55.84;101668.13;5031372;28;8887;-66
2023/07/08 04:16:05;;;;;;;;;7.25;6.00;;;;;20.38;56.28;101669.19;5031462;28;8923;-67
2023/07/08 04:18:32;;;;;;;;;5.75;5.25;;;;;20.37;56.01;101668.34;5031296;28;8829;-68
2023/07/08 04:20:58;;;;;;;;;3.25;3.25;;;;;20.40;56.16;101667.88;5021537;28;8863;-65
2023/07/08 04:23:28;;;;;;;;;6.75;6.75;;;;;20.38;55.74;101667.28;5035176;28;8838;-66
2023/07/08 04:25:57;;;;;;;;;9.25;7.25;;;;;20.28;55.70;101666.22;5052101;28;8814;-66
2023/07/08 04:28:23;;;;;;;;;6.50;6.50;;;;;20.24;56.07;101669.41;5023642;28;8835;-66
2023/07/08 04:30:52;;;;;;;;;5.00;5.00;;;;;20.24;56.08;101658.47;5022258;28;8999;-67
2023/07/08 04:33:19;;;;;;;;;7.50;6.00;;;;;20.27;55.88;101667.28;5032310;28;8856;-67
2023/07/08 04:35:45;;;;;;;;;10.00;8.67;;;;;20.16;55.53;101664.31;5053782;28;8930;-68
2023/07/08 04:38:21;;;;;;;;;7.00;7.00;;;;;20.13;56.16;101662.03;5049802;28;9009;-66
2023/07/08 04:40:50;;;;;;;;;6.50;6.00;;;;;20.12;56.29;101663.13;5028000;28;8938;-67
2023/07/08 04:43:18;;;;;;;;;7.00;7.00;;;;;20.18;56.46;101667.66;5045850;28;8845;-67
2023/07/08 04:45:50;;;;;;;;;7.00;7.00;;;;;20.26;56.21;101666.47;5022632;28;8833;-67
2023/07/08 04:48:20;;;;;;;;;9.00;8.75;;;;;20.22;55.96;101660.63;5047014;28;8855;-67
2023/07/08 04:50:50;;;;;;;;;6.00;6.00;;;;;20.21;55.91;101669.06;5029132;28;8926;-67
2023/07/08 04:53:16;;;;;;;;;8.75;7.00;;;;;20.18;56.12;101662.19;5028829;28;8867;-67
2023/07/08 04:55:48;;;;;;;;;11.00;10.00;;;;;20.18;55.85;101659.44;5029872;28;8824;-66
2023/07/08 04:58:14;;;;;;;;;7.25;6.50;;;;;20.20;55.91;101670.97;5031413;28;9708;-67
2023/07/08 05:00:41;;;;;;;;;7.75;7.75;;;;;20.22;55.97;101668.00;5035797;28;8850;-66
2023/07/08 05:03:07;;;;;;;;;6.25;6.25;;;;;20.20;56.14;101670.13;5031499;28;8851;-67
2023/07/08 05:05:34;;;;;;;;;5.00;5.00;;;;;20.22;56.23;101666.09;5028921;28;8817;-68
2023/07/08 05:08:00;;;;;;;;;5.25;5.25;;;;;20.26;56.10;101666.47;5031349;28;8817;-67
2023/07/08 05:10:27;;;;;;;;;7.00;7.00;;;;;20.31;55.83;101668.47;5042757;28;8817;-64
2023/07/08 05:12:53;;;;;;;;;7.00;7.00;;;;;20.25;55.78;101668.38;5028702;28;8929;-67
2023/07/08 05:15:20;;;;;;;;;6.00;6.00;;;;;20.27;56.03;101659.91;5029190;28;8845;-68
2023/07/08 05:17:46;;;;;;;;;7.75;7.75;;;;;20.27;55.68;101675.50;5045899;28;8817;-66
2023/07/08 05:20:14;;;;;;;;;9.50;9.00;;;;;20.23;56.04;101659.56;5030992;28;8847;-66
2023/07/08 05:22:42;;;;;;;;;4.50;4.50;;;;;20.28;56.07;101660.75;5030275;28;8817;-66
2023/07/08 05:25:10;;;;;;;;;7.67;6.00;;;;;20.27;55.86;101659.09;5028387;28;8991;-66
2023/07/08 05:27:37;;;;;;;;;7.00;7.00;;;;;20.25;55.52;101656.56;5030639;28;8906;-66
2023/07/08 05:30:05;;;;;;;;;9.25;8.50;;;;;20.25;55.80;101657.44;5048777;28;8849;-66
2023/07/08 05:32:32;;;;;;;;;8.00;8.00;;;;;20.28;56.09;101661.56;5042666;28;9553;-67
2023/07/08 05:34:58;;;;;;;;;7.00;6.25;;;;;20.42;56.09;101667.66;5021405;28;9160;-68
2023/07/08 05:37:27;;;;;;;;;9.50;9.50;;;;;20.57;55.41;101670.72;5034556;28;8845;-65
2023/07/08 05:39:55;;;;;;;;;12.50;6.75;;;;;20.75;55.26;101667.00;5034834;28;8845;-65
2023/07/08 05:42:22;;;;;;;;;6.75;6.50;;;;;20.97;54.91;101676.22;5012923;28;8871;-66
2023/07/08 05:44:48;;;;;;;;;6.00;6.00;;;;;21.19;54.22;101659.94;5030492;28;9710;-65
2023/07/08 05:47:15;;;;;;;;;10.75;8.50;;;;;21.27;53.54;101661.47;5025200;28;8894;-66
2023/07/08 05:49:42;;;;;;;;;7.50;7.50;;;;;21.36;53.00;101659.19;5029322;28;8845;-66
2023/07/08 05:52:11;;;;;;;;;5.50;5.50;;;;;21.40;53.04;101666.66;5019761;28;8835;-66
2023/07/08 05:54:38;;;;;;;;;8.25;8.25;;;;;21.44;53.09;101656.06;5041353;28;8845;-68
2023/07/08 05:57:07;;;;;;;;;6.25;6.00;;;;;21.56;53.08;101661.47;5028046;28;8836;-65
2023/07/08 05:59:35;;;;;;;;;6.50;6.50;;;;;21.67;52.89;101655.91;5033268;28;8828;-67
2023/07/08 06:02:02;;;;;;;;;7.25;7.00;;;;;21.73;52.68;101654.91;5029885;28;8833;-67
2023/07/08 06:04:30;;;;;;;;;7.00;6.25;;;;;21.74;52.24;101658.47;5019954;28;8872;-68
2023/07/08 06:06:57;;;;;;;;;9.25;7.50;;;;;21.74;52.54;101661.22;5044141;28;8830;-65
2023/07/08 06:09:24;;;;;;;;;8.50;7.00;;;;;21.83;52.82;101670.66;5050029;28;8868;-66
2023/07/08 06:11:50;;;;;;;;;6.50;6.50;;;;;21.85;52.48;101664.97;5049878;28;8849;-65
2023/07/08 06:14:17;;;;;;;;;6.25;6.00;;;;;21.79;51.93;101661.28;5023657;28;8836;-66
2023/07/08 06:16:43;;;;;;;;;10.25;10.25;;;;;21.63;52.13;101659.38;5030210;28;8911;-65
2023/07/08 06:19:10;;;;;;;;;11.50;11.50;;;;;21.48;52.33;101660.78;5025230;28;8851;-66
2023/07/08 06:21:37;;;;;;;;;6.50;6.50;;;;;21.36;53.27;101657.28;5010252;28;8965;-66
2023/07/08 06:24:04;;;;;;;;;9.00;8.00;;;;;21.29;52.98;101663.94;5035984;28;8833;-68
2023/07/08 06:26:31;;;;;;;;;8.50;8.00;;;;;21.18;53.25;101655.53;5028542;28;8824;-66
2023/07/08 06:28:57;;;;;;;;;13.50;11.50;;;;;21.14;53.71;101659.00;5025804;28;8884;-65
2023/07/08 06:31:24;;;;;;;;;7.75;7.75;;;;;21.18;53.82;101668.41;5049581;28;8841;-67
2023/07/08 06:33:50;;;;;;;;;10.75;7.75;;;;;21.22;53.80;101666.81;5031649;28;8821;-66
2023/07/08 06:36:17;;;;;;;;;6.00;6.00;;;;;21.27;54.09;101663.34;5022737;28;8841;-66
2023/07/08 06:38:43;;;;;;;;;9.75;8.75;;;;;21.28;53.94;101660.38;5027296;28;9545;-65
2023/07/08 06:41:10;;;;;;;;;7.00;7.00;;;;;21.30;54.25;101658.22;5019096;28;8821;-65
2023/07/08 06:43:36;;;;;;;;;6.50;6.50;;;;;21.32;53.85;101663.47;5029311;28;8837;-66
2023/07/08 06:46:15;;;;;;;;;6.00;6.00;;;;;21.33;54.12;101665.97;5048397;28;8845;-66
2023/07/08 06:48:42;;;;;;;;;7.75;6.50;;;;;21.41;53.99;101679.28;5043938;28;8824;-67
2023/07/08 06:51:08;;;;;;;;;7.75;7.75;;;;;21.42;54.06;101672.72;5028212;28;8855;-67
2023/07/08 06:53:35;;;;;;;;;6.25;6.25;;;;;21.44;53.98;101675.22;5027460;28;8839;-67
2023/07/08 06:56:02;;;;;;;;;8.00;7.75;;;;;21.48;53.90;101666.25;5019333;28;9020;-66
2023/07/08 06:58:28;;;;;;;;;11.25;9.25;;;;;21.52;54.19;101672.09;5027168;28;8905;-67
2023/07/08 07:00:55;;;;;;;;;8.75;7.75;;;;;21.53;53.91;101673.72;5019938;28;8914;-68
2023/07/08 07:03:21;;;;;;;;;4.75;4.75;;;;;21.56;53.79;101662.28;5032490;28;8911;-65
2023/07/08 07:05:48;;;;;;;;;9.00;8.25;;;;;21.59;53.04;101656.31;5049514;28;8814;-65
2023/07/08 07:08:14;;;;;;;;;13.75;12.25;;;;;21.54;53.38;101661.69;5030202;28;8947;-65
2023/07/08 07:10:41;;;;;;;;;9.75;9.25;;;;;21.53;53.61;101660.03;5024545;28;8827;-65
2023/07/08 07:13:08;;;;;;;;;9.00;9.00;;;;;21.56;54.11;101650.50;5030620;28;8875;-66
2023/07/08 07:15:35;;;;;;;;;6.50;6.50;;;;;21.58;53.65;101651.06;5028342;28;8851;-65
2023/07/08 07:18:01;;;;;;;;;11.50;11.25;;;;;21.58;54.03;101654.63;5025939;28;8852;-67
2023/07/08 07:20:29;;;;;;;;;7.25;7.25;;;;;21.63;54.26;101656.63;5024789;28;8845;-66
2023/07/08 07:22:55;;;;;;;;;10.75;9.75;;;;;21.65;53.24;101649.84;5033176;28;8812;-66
2023/07/08 07:25:22;;;;;;;;;7.50;7.50;;;;;21.62;53.58;101644.84;5031256;28;8898;-67
2023/07/08 07:27:48;;;;;;;;;9.00;7.25;;;;;;;;5030579;28;8962;-66
2023/07/08 07:30:15;;;;;;;;;9.00;8.25;;;;;21.75;54.10;101649.16;5026814;28;8825;-66
2023/07/08 07:32:42;;;;;;;;;6.00;6.00;;;;;21.77;53.99;101644.28;5029413;28;8836;-68
2023/07/08 07:35:14;;;;;;;;;8.00;7.25;;;;;21.87;53.86;101654.56;5027039;28;8869;-66
2023/07/08 07:37:44;;;;;;;;;9.25;9.25;;;;;21.92;54.05;101650.00;5032054;28;8817;-66
2023/07/08 07:40:13;;;;;;;;;8.25;7.75;;;;;21.92;53.76;101650.00;5033391;28;8840;-65
2023/07/08 07:42:41;;;;;;;;;9.75;9.50;;;;;21.96;52.92;101651.16;5043786;28;8867;-67
2023/07/08 07:45:09;;;;;;;;;11.25;9.25;;;;;22.00;53.85;101654.25;5030419;28;8855;-65
2023/07/08 07:47:35;;;;;;;;;10.25;8.25;;;;;22.00;53.77;101654.25;5023410;28;8911;-65
2023/07/08 07:50:04;;;;;;;;;8.00;8.00;;;;;22.07;53.41;101659.53;5031789;28;8943;-67
2023/07/08 07:52:30;;;;;;;;;8.25;8.25;;;;;22.13;53.31;101658.56;5043638;28;8871;-67
2023/07/08 07:54:57;;;;;;;;;8.00;8.00;;;;;22.19;53.03;101655.63;5041356;28;8852;-66
2023/07/08 07:57:24;;;;;;;;;8.75;8.00;;;;;22.21;52.31;101648.00;5026235;28;8836;-67
2023/07/08 07:59:51;;;;;;;;;9.00;9.00;;;;;22.28;52.38;101638.75;5029518;28;8836;-67
2023/07/08 08:02:18;;;;;;;;;6.75;6.00;;;;;22.34;52.67;101637.75;5022134;28;8844;-66
2023/07/08 08:04:45;;;;;;;;;8.50;8.00;;;;;22.36;52.39;101639.16;5044284;28;8896;-67
2023/07/08 08:07:11;;;;;;;;;11.50;11.50;;;;;22.39;51.32;101630.41;5033260;28;9672;-66
2023/07/08 08:09:38;;;;;;;;;10.75;10.75;;;;;22.38;51.31;101638.91;5025173;28;8843;-68
2023/07/08 08:12:07;;;;;;;;;7.75;7.75;;;;;22.41;51.36;101643.88;5020854;28;8849;-67
2023/07/08 08:14:33;;;;;;;;;8.50;7.50;;;;;22.41;51.67;101635.66;5018555;28;8836;-65
2023/07/08 08:17:00;;;;;;;;;12.75;10.00;;;;;22.46;51.99;101632.97;5027963;28;8869;-64
2023/07/08 08:19:27;;;;;;;;;7.25;7.25;;;;;22.52;51.97;101631.94;5027939;28;8821;-65
2023/07/08 08:21:53;;;;;;;;;6.00;6.00;;;;;22.60;52.19;101628.75;5022767;28;8932;-68
2023/07/08 08:24:19;;;;;;;;;11.75;9.75;;;;;22.70;51.63;101628.06;5025601;28;8970;-66
2023/07/08 08:26:46;;;;;;;;;10.00;10.00;;;;;22.64;51.52;101634.56;5022934;28;8836;-66
2023/07/08 08:29:12;;;;;;;;;9.25;9.25;;;;;22.69;52.44;101629.16;5018100;28;8883;-71
2023/07/08 08:31:39;;;;;;;;;9.25;8.00;;;;;22.78;54.07;101624.03;5029090;28;9881;-67
2023/07/08 08:34:05;;;;;;;;;11.25;10.50;;;;;22.81;54.29;101635.34;5028381;28;8951;-66
2023/07/08 08:36:32;;;;;;;;;11.75;11.75;;;;;22.81;54.25;101650.94;5026832;28;8829;-66
2023/07/08 08:38:58;;;;;;;;;10.75;9.00;;;;;22.83;54.46;101651.53;5030025;28;8840;-66
2023/07/08 08:41:34;;;;;;;;;10.00;10.00;;;;;22.86;54.43;101653.78;5045869;28;8864;-65
2023/07/08 08:44:03;;;;;;;;;4.25;4.25;;;;;22.92;54.20;101647.28;5029035;28;8842;-66
2023/07/08 08:46:39;;;;;;;;;9.00;8.50;;;;;22.95;54.12;101653.09;5032150;28;8951;-65
2023/07/08 08:49:23;;;;;;;;;10.50;9.00;;;;;22.97;54.21;101654.75;5027930;28;8971;-66
2023/07/08 08:51:51;;;;;;;;;10.00;10.00;;;;;23.05;53.90;101660.63;5029269;28;8875;-67
2023/07/08 08:54:17;;;;;;;;;10.25;9.50;;;;;23.08;53.93;101667.50;5031162;28;8833;-67
2023/07/08 08:56:56;;;;;;;;;11.00;10.75;;;;;23.08;54.00;101662.84;5030840;28;8825;-68
2023/07/08 08:59:41;;;;;;;;;7.50;7.00;;;;;23.14;54.32;101656.31;5026356;28;9545;-68
2023/07/08 09:03:00;;;;;;;;;10.25;9.75;;;;;23.24;54.20;101663.00;5031740;28;8833;-67
2023/07/08 09:05:27;;;;;;;;;10.50;10.50;;;;;23.35;54.26;101664.78;4967795;28;8857;-66
2023/07/08 09:08:39;;;;;;;;;11.00;11.00;;;;;23.42;53.84;101660.72;5012264;28;8827;-65
2023/07/08 09:11:22;;;;;;;;;10.25;9.00;;;;;23.44;53.69;101658.53;5035113;28;8826;-65
2023/07/08 09:13:50;;;;;;;;;9.50;9.50;;;;;23.44;53.40;101655.78;5032944;28;8846;-67
2023/07/08 09:16:36;;;;;;;;;7.25;7.25;;;;;23.51;53.57;101661.09;5040847;28;8838;-66
2023/07/08 09:19:24;;;;;;;;;10.00;9.00;;;;;23.60;53.53;101666.94;5034003;28;8835;-69
2023/07/08 09:22:02;;;;;;;;;12.00;12.00;;;;;23.61;52.50;101657.59;5025940;28;8845;-66
2023/07/08 09:24:49;;;;;;;;;9.00;9.00;;;;;23.63;52.92;101659.00;5036550;28;8840;-65
2023/07/08 09:27:16;;;;;;;;;11.75;11.75;;;;;23.66;52.63;101655.75;5029076;28;8848;-65
2023/07/08 09:29:42;;;;;;;;;11.50;10.50;;;;;23.76;52.42;101651.44;5029237;28;8851;-65
2023/07/08 09:32:17;;;;;;;;;10.00;10.00;;;;;23.83;52.38;101654.78;5020854;28;8925;-66
2023/07/08 09:34:51;;;;;;;;;10.50;10.50;;;;;23.80;52.13;101647.06;5030348;28;8832;-69
2023/07/08 09:37:27;;;;;;;;;9.75;9.75;;;;;23.84;52.30;101649.00;5029253;28;9561;-68
2023/07/08 09:39:56;;;;;;;;;9.75;9.75;;;;;23.91;52.52;101660.63;5041733;28;8909;-68
2023/07/08 09:42:29;;;;;;;;;11.00;10.75;;;;;23.98;52.01;101654.06;5025821;28;8823;-69
2023/07/08 09:45:01;;;;;;;;;10.50;9.25;;;;;24.00;52.15;101649.97;4993605;28;9540;-69
2023/07/08 09:47:32;;;;;;;;;11.00;11.00;;;;;24.10;52.20;101652.75;5010916;28;8851;-69
2023/07/08 09:50:00;;;;;;;;;10.25;10.25;;;;;24.17;52.24;101647.84;5010665;28;8842;-68
2023/07/08 09:52:29;;;;;;;;;11.00;10.75;;;;;24.23;52.23;101647.91;5010424;28;8901;-68
2023/07/08 09:54:56;;;;;;;;;11.25;11.00;;;;;24.31;52.02;101652.91;5036447;28;8940;-68
2023/07/08 09:57:29;;;;;;;;;10.75;9.25;;;;;24.32;51.94;101660.06;5050029;28;8821;-68
2023/07/08 10:00:02;;;;;;;;;15.25;13.00;;;;;24.33;51.66;101659.78;5010754;28;8877;-67
2023/07/08 10:02:32;;;;;;;;;9.75;9.75;;;;;24.35;52.03;101660.38;5010919;28;9092;-68
2023/07/08 10:05:13;;;;;;;;;14.00;11.25;;;;;24.33;51.17;101654.28;5047056;28;8850;-68
2023/07/08 10:07:39;;;;;;;;;11.75;11.75;;;;;24.33;51.38;101664.47;5041551;28;8806;-69
2023/07/08 10:10:14;;;;;;;;;6.50;6.50;;;;;24.36;51.39;101666.69;5041893;28;8826;-68
2023/07/08 10:12:48;;;;;;;;;11.75;11.75;;;;;24.39;50.96;101658.75;5049968;28;8845;-68
2023/07/08 10:15:33;;;;;;;;;17.25;15.75;;;;;24.48;50.85;101667.34;5013598;28;9567;-68
2023/07/08 10:18:00;;;;;;;;;12.25;12.25;;;;;24.50;51.36;101659.63;5009115;28;8831;-69
2023/07/08 10:20:36;;;;;;;;;11.75;11.50;;;;;24.58;51.25;101658.28;5009818;28;8965;-68
2023/07/08 10:23:22;;;;;;;;;10.75;10.25;;;;;24.58;51.24;101659.13;5021279;28;8838;-68
2023/07/08 10:26:08;;;;;;;;;14.50;11.25;;;;;24.66;51.14;101660.53;5049714;28;8818;-69
2023/07/08 10:28:57;;;;;;;;;11.75;10.25;;;;;24.71;50.74;101662.47;5024957;28;8835;-68
2023/07/08 10:31:34;;;;;;;;;9.50;9.25;;;;;24.77;50.99;101655.91;5009044;28;8908;-68
2023/07/08 10:34:22;;;;;;;;;10.75;9.75;;;;;24.84;50.82;101657.31;5046178;28;8850;-68
2023/07/08 10:37:07;;;;;;;;;9.75;9.75;;;;;24.91;51.14;101665.31;5049990;28;8818;-68
2023/07/08 10:39:57;;;;;;;;;11.00;11.00;;;;;24.93;50.71;101654.84;5039548;28;8837;-68
2023/07/08 10:42:46;;;;;;;;;9.25;9.25;;;;;25.00;51.01;101660.94;4998716;28;8895;-68
2023/07/08 10:45:39;;;;;;;;;13.75;13.50;;;;;25.16;49.46;101659.09;5021419;28;8843;-69
2023/07/08 10:49:07;;;;;;;;;12.00;12.00;;;;;25.27;49.80;101657.16;5010042;28;8957;-69
2023/07/08 10:51:46;;;;;;;;;9.25;9.25;;;;;25.35;49.81;101651.94;4982862;28;8842;-70
2023/07/08 10:54:21;;;;;;;;;13.00;12.00;;;;;25.35;49.44;101648.34;4988163;28;8958;-69
2023/07/08 10:57:00;;;;;;;;;11.75;11.75;;;;;25.39;49.04;101647.53;5000897;28;8843;-69
2023/07/08 10:59:38;;;;;;;;;13.00;12.50;;;;;25.36;49.54;101644.50;5013851;28;8863;-70
2023/07/08 11:02:36;;;;;;;;;12.25;11.00;;;;;25.46;49.24;101646.44;5012231;28;9618;-69
2023/07/08 11:05:27;;;;;;;;;14.75;14.00;;;;;25.48;48.74;101645.09;5013578;28;8835;-69
2023/07/08 11:07:58;;;;;;;;;12.50;12.50;;;;;25.51;48.69;101636.25;5048365;28;8895;-69
2023/07/08 11:11:08;;;;;;;;;14.50;12.25;;;;;25.61;48.37;101638.19;5037162;28;8854;-69
2023/07/08 11:13:52;;;;;;;;;12.25;12.25;;;;;25.73;48.37;101640.66;5016081;28;8879;-70
2023/07/08 11:16:29;;;;;;;;;13.00;13.00;;;;;25.79;48.03;101634.06;5031829;28;8982;-70
2023/07/08 11:19:04;;;;;;;;;11.75;11.75;;;;;25.81;48.19;101627.19;5049619;28;8944;-69
2023/07/08 11:21:43;;;;;;;;;9.50;9.50;;;;;25.84;48.93;101634.88;5053651;28;8906;-71
2023/07/08 11:24:32;;;;;;;;;13.25;12.00;;;;;25.92;47.93;101632.66;5024641;28;8838;-69
2023/07/08 11:27:08;;;;;;;;;13.75;13.75;;;;;26.04;47.37;101628.50;5033873;28;8848;-69
2023/07/08 11:29:45;;;;;;;;;13.25;10.00;;;;;26.05;47.58;101630.19;5038828;28;8949;-69
2023/07/08 11:32:15;;;;;;;;;9.00;9.00;;;;;26.07;47.54;101625.19;5031587;28;8843;-70
2023/07/08 11:34:46;;;;;;;;;19.75;18.00;;;;;26.19;47.18;101630.41;5031607;28;8868;-69
2023/07/08 11:37:13;;;;;;;;;12.25;11.50;;;;;26.22;47.95;101634.56;5032255;28;8890;-69
2023/07/08 11:39:46;;;;;;;;;13.25;13.00;;;;;26.19;46.63;101635.09;5026577;28;8896;-68
2023/07/08 11:42:23;;;;;;;;;13.25;13.25;;;;;26.26;46.76;101630.94;5013492;28;8866;-69
2023/07/08 11:44:54;;;;;;;;;12.25;12.00;;;;;26.35;46.64;101626.50;5031406;28;8837;-68
2023/07/08 11:47:39;;;;;;;;;12.25;11.00;;;;;26.40;47.37;101625.66;5036497;28;9511;-68